createdAt,value
2018-09-14T00:00:59.962Z,10.20
2018-09-14T00:03:28.745Z,10.20
2018-09-14T00:05:57.539Z,10.10
2018-09-14T00:08:26.396Z,10.00
2018-09-14T00:10:55.179Z,9.90
2018-09-14T00:13:24.045Z,9.80
2018-09-14T00:15:52.818Z,9.80
2018-09-14T00:18:21.840Z,9.80
2018-09-14T00:20:50.572Z,9.90
2018-09-14T00:23:19.370Z,9.80
2018-09-14T00:25:48.094Z,9.80
2018-09-14T00:28:16.859Z,9.80
2018-09-14T00:30:45.893Z,9.70
2018-09-14T00:33:14.625Z,9.60
2018-09-14T00:35:43.662Z,9.50
2018-09-14T00:38:12.480Z,9.40
2018-09-14T00:40:41.299Z,9.40
2018-09-14T00:43:10.033Z,9.50
2018-09-14T00:45:38.813Z,9.30
2018-09-14T00:48:07.554Z,9.30
2018-09-14T00:50:36.355Z,9.20
2018-09-14T00:53:05.082Z,9.10
2018-09-14T00:55:33.881Z,9.10
2018-09-14T00:58:02.704Z,9.20
2018-09-14T01:00:31.618Z,9.30
2018-09-14T01:03:00.453Z,9.40
2018-09-14T01:05:29.190Z,9.30
2018-09-14T01:07:57.964Z,9.30
2018-09-14T01:10:26.744Z,9.40
2018-09-14T01:12:55.857Z,9.30
2018-09-14T01:15:24.657Z,9.20
2018-09-14T01:17:53.992Z,9.30
2018-09-14T01:20:22.822Z,9.30
2018-09-14T01:22:51.549Z,9.30
2018-09-14T01:25:20.384Z,9.20
2018-09-14T01:27:49.184Z,9.10
2018-09-14T01:30:17.996Z,9.20
2018-09-14T01:32:46.755Z,9.20
2018-09-14T01:35:20.994Z,9.20
2018-09-14T01:37:50.020Z,9.20
2018-09-14T01:40:18.786Z,9.10
2018-09-14T01:42:47.581Z,9.10
2018-09-14T01:45:16.356Z,9.10
2018-09-14T01:47:45.215Z,9.20
2018-09-14T01:50:13.989Z,9.20
2018-09-14T01:52:42.751Z,9.20
2018-09-14T01:55:11.808Z,9.30
2018-09-14T01:57:40.595Z,9.50
2018-09-14T02:00:09.412Z,9.50
2018-09-14T02:02:38.232Z,9.50
2018-09-14T02:05:07.090Z,9.30
2018-09-14T02:07:35.839Z,9.20
2018-09-14T02:10:04.751Z,9.10
2018-09-14T02:12:33.515Z,8.90
2018-09-14T02:15:02.283Z,8.80
2018-09-14T02:17:31.029Z,8.80
2018-09-14T02:19:59.804Z,8.80
2018-09-14T02:22:28.583Z,8.80
2018-09-14T02:24:57.348Z,8.70
2018-09-14T02:27:26.120Z,8.60
2018-09-14T02:29:54.906Z,8.30
2018-09-14T02:32:23.668Z,8.20
2018-09-14T02:34:52.409Z,8.30
2018-09-14T02:37:21.138Z,8.20
2018-09-14T02:39:49.950Z,8.20
2018-09-14T02:42:18.701Z,8.30
2018-09-14T02:44:47.509Z,8.40
2018-09-14T02:47:16.230Z,8.30
2018-09-14T02:49:45.009Z,8.30
2018-09-14T02:52:13.741Z,8.40
2018-09-14T02:54:42.611Z,8.50
2018-09-14T02:57:11.321Z,8.60
2018-09-14T02:59:40.091Z,8.60
2018-09-14T03:02:09.484Z,8.60
2018-09-14T03:04:38.238Z,8.60
2018-09-14T03:07:07.129Z,8.50
2018-09-14T03:09:35.985Z,8.50
2018-09-14T03:12:04.757Z,8.40
2018-09-14T03:14:33.569Z,8.30
2018-09-14T03:17:02.316Z,8.20
2018-09-14T03:19:31.070Z,8.20
2018-09-14T03:21:59.829Z,8.20
2018-09-14T03:24:28.928Z,8.10
2018-09-14T03:26:57.659Z,8.10
2018-09-14T03:29:26.449Z,7.90
2018-09-14T03:31:55.233Z,7.90
2018-09-14T03:34:23.982Z,8.00
2018-09-14T03:36:52.852Z,8.00
2018-09-14T03:39:21.611Z,8.00
2018-09-14T03:41:50.390Z,8.00
2018-09-14T03:44:19.161Z,8.00
2018-09-14T03:46:47.931Z,8.10
2018-09-14T03:49:16.718Z,8.10
2018-09-14T03:51:45.528Z,8.10
2018-09-14T03:54:14.331Z,8.10
2018-09-14T03:56:43.078Z,8.20
2018-09-14T03:59:11.845Z,8.20
2018-09-14T04:01:42.041Z,8.00
2018-09-14T04:04:11.019Z,8.00
2018-09-14T04:06:39.861Z,8.00
2018-09-14T04:09:10.225Z,7.90
2018-09-14T04:11:42.162Z,7.70
2018-09-14T04:14:11.153Z,7.70
2018-09-14T04:16:40.002Z,7.70
2018-09-14T04:19:08.945Z,7.60
2018-09-14T04:21:37.689Z,7.60
2018-09-14T04:24:06.518Z,7.70
2018-09-14T04:26:35.329Z,7.80
2018-09-14T04:29:04.238Z,7.80
2018-09-14T04:31:33.245Z,7.70
2018-09-14T04:34:02.025Z,7.60
2018-09-14T04:36:30.812Z,7.40
2018-09-14T04:38:59.549Z,7.50
2018-09-14T04:41:28.376Z,7.50
2018-09-14T04:43:58.619Z,7.50
2018-09-14T04:46:27.404Z,7.50
2018-09-14T04:48:56.168Z,7.50
2018-09-14T04:51:25.005Z,7.50
2018-09-14T04:53:53.718Z,7.50
2018-09-14T04:56:22.621Z,7.50
2018-09-14T04:58:51.349Z,7.50
2018-09-14T05:01:20.093Z,7.60
2018-09-14T05:03:48.951Z,7.60
2018-09-14T05:06:17.752Z,7.50
2018-09-14T05:08:46.489Z,7.50
2018-09-14T05:11:15.309Z,7.30
2018-09-14T05:13:44.059Z,7.30
2018-09-14T05:16:12.868Z,7.40
2018-09-14T05:18:41.937Z,7.50
2018-09-14T05:21:10.825Z,7.70
2018-09-14T05:23:39.784Z,7.70
2018-09-14T05:26:08.867Z,7.70
2018-09-14T05:28:37.797Z,7.80
2018-09-14T05:31:06.687Z,8.00
2018-09-14T05:33:35.486Z,8.30
2018-09-14T05:36:04.317Z,8.50
2018-09-14T05:38:33.065Z,8.70
2018-09-14T05:41:01.857Z,9.10
2018-09-14T05:43:30.669Z,9.50
2018-09-14T05:45:59.448Z,9.80
2018-09-14T05:48:28.171Z,10.50
2018-09-14T05:50:56.941Z,11.10
2018-09-14T05:53:26.521Z,11.50
2018-09-14T05:55:55.321Z,11.50
2018-09-14T05:58:24.122Z,11.90
2018-09-14T06:00:52.927Z,12.70
2018-09-14T06:03:21.667Z,13.30
2018-09-14T06:05:50.479Z,13.30
2018-09-14T06:08:19.252Z,12.10
2018-09-14T06:10:48.527Z,11.70
2018-09-14T06:13:17.330Z,11.70
2018-09-14T06:15:46.092Z,12.20
2018-09-14T06:18:14.877Z,12.80
2018-09-14T06:20:43.689Z,12.90
2018-09-14T06:23:12.731Z,13.40
2018-09-14T06:25:41.523Z,14.10
2018-09-14T06:28:10.310Z,14.90
2018-09-14T06:30:39.141Z,15.70
2018-09-14T06:33:07.934Z,16.40
2018-09-14T06:35:36.722Z,17.00
2018-09-14T06:38:05.540Z,17.70
2018-09-14T06:40:34.573Z,17.80
2018-09-14T06:43:03.353Z,18.30
2018-09-14T06:45:32.197Z,18.40
2018-09-14T06:48:00.947Z,18.50
2018-09-14T06:50:29.761Z,18.70
2018-09-14T06:52:58.566Z,18.50
2018-09-14T06:55:27.359Z,18.40
2018-09-14T06:57:56.336Z,17.40
2018-09-14T07:00:25.324Z,16.30
2018-09-14T07:02:54.372Z,15.50
2018-09-14T07:05:23.154Z,15.20
2018-09-14T07:07:51.917Z,15.20
2018-09-14T07:10:20.715Z,15.20
2018-09-14T07:12:49.559Z,15.40
2018-09-14T07:15:18.328Z,15.60
2018-09-14T07:17:47.070Z,16.20
2018-09-14T07:20:15.871Z,16.40
2018-09-14T07:22:44.757Z,16.70
2018-09-14T07:25:13.592Z,17.50
2018-09-14T07:27:42.367Z,17.90
2018-09-14T07:30:11.180Z,18.00
2018-09-14T07:32:39.987Z,18.30
2018-09-14T07:35:09.711Z,18.10
2018-09-14T07:37:38.456Z,18.20
2018-09-14T07:40:07.249Z,17.70
2018-09-14T07:42:36.184Z,17.50
2018-09-14T07:45:05.097Z,17.60
2018-09-14T07:47:34.003Z,17.80
2018-09-14T07:50:02.789Z,18.00
2018-09-14T07:52:31.537Z,18.00
2018-09-14T07:55:00.395Z,18.40
2018-09-14T07:57:29.149Z,18.40
2018-09-14T07:59:57.917Z,18.20
2018-09-14T08:02:26.717Z,18.30
2018-09-14T08:04:55.585Z,18.50
2018-09-14T08:07:24.344Z,19.00
2018-09-14T08:09:53.123Z,19.20
2018-09-14T08:12:21.908Z,19.20
2018-09-14T08:14:50.679Z,19.90
2018-09-14T08:17:19.451Z,20.50
2018-09-14T08:19:49.417Z,20.10
2018-09-14T08:22:18.209Z,19.60
2018-09-14T08:24:46.991Z,19.50
2018-09-14T08:27:15.935Z,19.60
2018-09-14T08:29:44.653Z,19.50
2018-09-14T08:32:13.517Z,19.60
2018-09-14T08:34:42.383Z,19.90
2018-09-14T08:37:11.142Z,20.10
2018-09-14T08:39:39.964Z,20.40
2018-09-14T08:42:08.718Z,20.50
2018-09-14T08:44:37.518Z,20.60
2018-09-14T08:47:06.496Z,20.50
2018-09-14T08:49:35.286Z,20.80
2018-09-14T08:52:04.111Z,20.70
2018-09-14T08:54:32.965Z,20.70
2018-09-14T08:57:01.739Z,21.00
2018-09-14T08:59:30.524Z,21.10
2018-09-14T09:01:59.388Z,20.90
2018-09-14T09:04:28.205Z,20.90
2018-09-14T09:06:56.959Z,21.00
2018-09-14T09:09:25.861Z,21.00
2018-09-14T09:11:54.736Z,21.30
2018-09-14T09:14:23.492Z,21.80
2018-09-14T09:16:52.295Z,21.80
2018-09-14T09:19:21.126Z,21.80
2018-09-14T09:21:49.935Z,21.70
2018-09-14T09:24:18.816Z,21.60
2018-09-14T09:26:48.677Z,21.30
2018-09-14T09:29:17.484Z,21.50
2018-09-14T09:31:46.485Z,21.80
2018-09-14T09:34:15.303Z,22.50
2018-09-14T09:36:44.050Z,23.00
2018-09-14T09:39:13.719Z,22.90
2018-09-14T09:41:43.101Z,23.20
2018-09-14T09:44:12.153Z,23.50
2018-09-14T09:46:40.908Z,23.40
2018-09-14T09:49:09.815Z,22.30
2018-09-14T09:51:38.596Z,22.00
2018-09-14T09:54:07.383Z,21.90
2018-09-14T09:56:36.220Z,22.10
2018-09-14T09:59:05.051Z,22.10
2018-09-14T10:01:41.753Z,21.90
2018-09-14T10:04:15.817Z,22.50
2018-09-14T10:06:44.642Z,23.10
2018-09-14T10:09:13.532Z,23.20
2018-09-14T10:11:42.376Z,23.60
2018-09-14T10:14:11.425Z,23.60
2018-09-14T10:16:40.126Z,23.40
2018-09-14T10:19:08.989Z,23.70
2018-09-14T10:21:37.777Z,24.30
2018-09-14T10:24:06.702Z,24.40
2018-09-14T10:26:35.566Z,24.00
2018-09-14T10:29:04.487Z,23.40
2018-09-14T10:31:33.258Z,23.30
2018-09-14T10:34:02.197Z,23.50
2018-09-14T10:36:30.902Z,23.50
2018-09-14T10:38:59.737Z,22.90
2018-09-14T10:41:28.837Z,22.80
2018-09-14T10:43:57.626Z,22.60
2018-09-14T10:46:26.414Z,22.70
2018-09-14T10:48:55.256Z,23.10
2018-09-14T10:51:24.310Z,23.70
2018-09-14T10:53:53.052Z,24.30
2018-09-14T10:56:21.824Z,24.90
2018-09-14T10:58:50.629Z,25.00
2018-09-14T11:01:19.410Z,24.60
2018-09-14T11:03:48.274Z,24.30
2018-09-14T11:06:17.312Z,24.70
2018-09-14T11:08:46.124Z,24.70
2018-09-14T11:11:14.920Z,24.90
2018-09-14T11:13:43.768Z,25.00
2018-09-14T11:16:12.730Z,25.30
2018-09-14T11:18:41.969Z,24.80
2018-09-14T11:21:10.754Z,24.70
2018-09-14T11:23:39.714Z,25.00
2018-09-14T11:26:08.864Z,24.50
2018-09-14T11:28:37.735Z,24.20
2018-09-14T11:31:06.581Z,24.40
2018-09-14T11:33:35.438Z,25.20
2018-09-14T11:36:04.330Z,25.50
2018-09-14T11:38:33.217Z,25.70
2018-09-14T11:41:02.040Z,25.50
2018-09-14T11:43:30.893Z,25.40
2018-09-14T11:45:59.751Z,25.30
2018-09-14T11:48:28.580Z,25.20
2018-09-14T11:50:57.392Z,25.10
2018-09-14T11:53:26.160Z,24.70
2018-09-14T11:55:55.281Z,25.40
2018-09-14T11:58:24.182Z,25.80
2018-09-14T12:00:53.564Z,25.90
2018-09-14T12:03:22.765Z,25.90
2018-09-14T12:05:51.546Z,25.50
2018-09-14T12:08:20.356Z,24.90
2018-09-14T12:10:49.275Z,25.40
2018-09-14T12:13:18.166Z,25.20
2018-09-14T12:15:47.223Z,25.20
2018-09-14T12:18:16.057Z,24.60
2018-09-14T12:20:44.869Z,24.50
2018-09-14T12:23:13.699Z,24.70
2018-09-14T12:25:42.480Z,25.50
2018-09-14T12:28:11.393Z,26.50
2018-09-14T12:30:40.474Z,26.80
2018-09-14T12:33:09.715Z,26.80
2018-09-14T12:35:39.011Z,26.20
2018-09-14T12:38:07.870Z,25.90
2018-09-14T12:40:36.781Z,26.10
2018-09-14T12:43:05.957Z,25.80
2018-09-14T12:45:34.750Z,25.30
2018-09-14T12:48:03.822Z,24.70
2018-09-14T12:50:32.709Z,25.00
2018-09-14T12:53:14.176Z,25.20
2018-09-14T12:55:44.981Z,24.70
2018-09-14T12:58:13.807Z,24.50
2018-09-14T13:00:42.600Z,25.00
2018-09-14T13:03:11.348Z,25.00
2018-09-14T13:05:40.133Z,24.20
2018-09-14T13:08:09.001Z,24.40
2018-09-14T13:10:37.841Z,25.10
2018-09-14T13:13:06.713Z,25.90
2018-09-14T13:15:35.816Z,26.50
2018-09-14T13:18:05.666Z,26.80
2018-09-14T13:20:34.767Z,26.60
2018-09-14T13:23:03.582Z,26.70
2018-09-14T13:25:32.471Z,26.40
2018-09-14T13:28:01.267Z,25.90
2018-09-14T13:30:30.123Z,25.50
2018-09-14T13:32:58.821Z,24.90
2018-09-14T13:35:27.654Z,24.40
2018-09-14T13:38:04.511Z,24.00
2018-09-14T13:40:33.257Z,24.40
2018-09-14T13:43:01.992Z,24.70
2018-09-14T13:45:30.749Z,24.50
2018-09-14T13:47:59.537Z,24.20
2018-09-14T13:50:28.430Z,24.00
2018-09-14T13:52:57.264Z,24.10
2018-09-14T13:55:26.070Z,24.20
2018-09-14T13:57:54.846Z,23.80
2018-09-14T14:00:23.659Z,23.80
2018-09-14T14:02:52.531Z,23.90
2018-09-14T14:05:21.363Z,23.80
2018-09-14T14:07:50.183Z,23.90
2018-09-14T14:10:18.970Z,23.90
2018-09-14T14:12:47.726Z,23.60
2018-09-14T14:15:16.591Z,23.40
2018-09-14T14:17:45.514Z,23.60
2018-09-14T14:20:14.367Z,24.00
2018-09-14T14:22:43.164Z,24.50
2018-09-14T14:25:11.956Z,24.70
2018-09-14T14:27:40.699Z,24.50
2018-09-14T14:30:09.764Z,24.00
2018-09-14T14:32:38.559Z,23.90
2018-09-14T14:35:07.447Z,23.90
2018-09-14T14:37:36.253Z,23.80
2018-09-14T14:40:05.144Z,24.00
2018-09-14T14:42:33.983Z,23.90
2018-09-14T14:45:02.748Z,23.80
2018-09-14T14:47:31.792Z,23.80
2018-09-14T14:50:00.557Z,23.90
2018-09-14T14:52:29.357Z,23.40
2018-09-14T14:54:58.180Z,23.10
2018-09-14T14:57:27.275Z,22.90
2018-09-14T14:59:56.090Z,23.20
2018-09-14T15:02:24.828Z,23.40
2018-09-14T15:04:53.590Z,23.50
2018-09-14T15:07:22.376Z,23.40
2018-09-14T15:09:51.151Z,23.50
2018-09-14T15:12:19.927Z,23.60
2018-09-14T15:14:48.753Z,23.70
2018-09-14T15:17:17.548Z,23.50
2018-09-14T15:19:46.412Z,23.70
2018-09-14T15:22:15.300Z,23.40
2018-09-14T15:24:44.299Z,23.30
2018-09-14T15:27:13.111Z,23.30
2018-09-14T15:29:41.939Z,23.00
2018-09-14T15:32:10.769Z,23.00
2018-09-14T15:34:39.597Z,22.90
2018-09-14T15:37:08.713Z,22.80
2018-09-14T15:39:37.520Z,22.70
2018-09-14T15:42:06.346Z,22.60
2018-09-14T15:44:35.125Z,22.80
2018-09-14T15:47:03.908Z,22.60
2018-09-14T15:49:32.755Z,22.40
2018-09-14T15:52:01.504Z,22.60
2018-09-14T15:54:30.272Z,22.60
2018-09-14T15:56:59.089Z,22.60
2018-09-14T15:59:27.889Z,22.70
2018-09-14T16:01:59.542Z,22.60
2018-09-14T16:04:28.296Z,22.50
2018-09-14T16:06:57.133Z,22.50
2018-09-14T16:09:26.071Z,22.20
2018-09-14T16:11:54.914Z,22.10
2018-09-14T16:14:23.713Z,22.20
2018-09-14T16:16:52.650Z,22.20
2018-09-14T16:19:21.441Z,22.20
2018-09-14T16:21:50.254Z,22.20
2018-09-14T16:24:19.113Z,22.10
2018-09-14T16:26:48.057Z,22.10
2018-09-14T16:29:17.028Z,21.80
2018-09-14T16:31:45.844Z,21.70
2018-09-14T16:34:15.041Z,21.60
2018-09-14T16:36:43.907Z,21.40
2018-09-14T16:39:13.512Z,21.40
2018-09-14T16:41:42.434Z,21.30
2018-09-14T16:44:11.325Z,21.20
2018-09-14T16:46:40.182Z,21.10
2018-09-14T16:49:09.498Z,21.10
2018-09-14T16:51:38.432Z,21.20
2018-09-14T16:54:07.182Z,21.00
2018-09-14T16:56:35.968Z,20.90
2018-09-14T16:59:04.860Z,20.80
2018-09-14T17:01:35.105Z,20.80
2018-09-14T17:04:03.906Z,20.80
2018-09-14T17:06:32.757Z,20.90
2018-09-14T17:09:02.200Z,20.80
2018-09-14T17:11:30.985Z,20.60
2018-09-14T17:13:59.825Z,20.50
2018-09-14T17:16:28.637Z,20.40
2018-09-14T17:18:57.452Z,20.30
2018-09-14T17:21:26.248Z,20.30
2018-09-14T17:23:55.071Z,20.20
2018-09-14T17:26:23.879Z,20.10
2018-09-14T17:28:52.685Z,19.90
2018-09-14T17:31:21.469Z,19.90
2018-09-14T17:33:50.319Z,19.80
2018-09-14T17:36:19.142Z,19.70
2018-09-14T17:38:47.913Z,19.60
2018-09-14T17:41:16.744Z,19.50
2018-09-14T17:43:45.765Z,19.40
2018-09-14T17:46:14.561Z,19.20
2018-09-14T17:48:43.399Z,19.20
2018-09-14T17:51:12.272Z,19.10
2018-09-14T17:53:41.059Z,19.10
2018-09-14T17:56:09.849Z,19.00
2018-09-14T17:58:38.650Z,18.90
2018-09-14T18:01:07.535Z,19.00
2018-09-14T18:03:36.525Z,19.00
2018-09-14T18:06:05.310Z,18.90
2018-09-14T18:08:34.098Z,19.00
2018-09-14T18:11:03.017Z,19.00
2018-09-14T18:13:31.840Z,19.00
2018-09-14T18:16:00.633Z,19.00
2018-09-14T18:18:29.947Z,18.90
2018-09-14T18:20:58.815Z,18.80
2018-09-14T18:23:27.612Z,18.70
2018-09-14T18:25:56.388Z,18.70
2018-09-14T18:28:25.161Z,18.60
2018-09-14T18:30:53.923Z,18.50
2018-09-14T18:33:22.746Z,18.50
2018-09-14T18:35:51.606Z,18.50
2018-09-14T18:38:20.322Z,18.40
2018-09-14T18:40:49.130Z,18.50
2018-09-14T18:43:17.899Z,18.40
2018-09-14T18:45:46.813Z,18.40
2018-09-14T18:48:15.628Z,18.40
2018-09-14T18:50:44.456Z,18.40
2018-09-14T18:53:13.260Z,18.30
2018-09-14T18:55:42.079Z,18.30
2018-09-14T18:58:10.846Z,18.30
2018-09-14T19:00:39.619Z,18.20
2018-09-14T19:03:08.392Z,18.20
2018-09-14T19:05:37.177Z,18.10
2018-09-14T19:08:05.924Z,18.10
2018-09-14T19:10:34.697Z,18.00
2018-09-14T19:13:03.536Z,17.90
2018-09-14T19:15:32.295Z,17.90
2018-09-14T19:18:01.249Z,17.90
2018-09-14T19:20:30.034Z,17.70
2018-09-14T19:22:58.813Z,17.60
2018-09-14T19:25:27.931Z,17.60
2018-09-14T19:27:56.701Z,17.40
2018-09-14T19:30:25.537Z,17.40
2018-09-14T19:32:54.396Z,17.30
2018-09-14T19:35:23.488Z,17.20
2018-09-14T19:37:52.258Z,17.20
2018-09-14T19:40:21.021Z,17.10
2018-09-14T19:42:49.786Z,17.00
2018-09-14T19:45:21.401Z,17.10
2018-09-14T19:47:50.216Z,17.20
2018-09-14T19:50:19.102Z,17.20
2018-09-14T19:52:47.843Z,17.30
2018-09-14T19:55:16.655Z,17.40
2018-09-14T19:57:47.047Z,17.40
2018-09-14T20:00:17.495Z,17.30
2018-09-14T20:02:47.717Z,17.30
2018-09-14T20:05:16.541Z,17.40
2018-09-14T20:07:47.018Z,17.40
2018-09-14T20:10:17.041Z,17.40
2018-09-14T20:12:46.283Z,17.50
2018-09-14T20:15:15.222Z,17.60
2018-09-14T20:17:44.004Z,17.60
2018-09-14T20:20:38.675Z,17.60
2018-09-14T20:23:09.185Z,17.50
2018-09-14T20:25:42.038Z,17.40
2018-09-14T20:28:41.303Z,17.30
2018-09-14T20:31:10.313Z,17.30
2018-09-14T20:33:39.131Z,17.30
2018-09-14T20:36:08.026Z,17.30
2018-09-14T20:38:37.370Z,17.20
2018-09-14T20:41:07.928Z,17.20
2018-09-14T20:43:36.780Z,17.20
2018-09-14T20:46:06.610Z,17.10
2018-09-14T20:48:36.779Z,17.10
2018-09-14T20:51:05.778Z,17.10
2018-09-14T20:53:34.580Z,17.10
2018-09-14T20:56:03.373Z,16.90
2018-09-14T20:58:32.229Z,16.80
2018-09-14T21:01:01.034Z,16.80
2018-09-14T21:03:30.105Z,16.80
2018-09-14T21:05:59.770Z,16.90
2018-09-14T21:08:30.452Z,17.00
2018-09-14T21:10:59.297Z,17.00
2018-09-14T21:13:28.128Z,17.00
2018-09-14T21:18:24.624Z,17.00
2018-09-14T21:20:53.405Z,17.20
2018-09-14T21:23:22.148Z,17.30
2018-09-14T21:25:50.954Z,17.30
2018-09-14T21:28:19.773Z,17.30
2018-09-14T21:30:48.675Z,17.30
2018-09-14T21:33:17.510Z,17.30
2018-09-14T21:35:48.948Z,17.20
2018-09-14T21:38:18.141Z,17.20
2018-09-14T21:40:46.946Z,17.10
2018-09-14T21:43:15.792Z,17.00
2018-09-14T21:45:44.795Z,17.00
2018-09-14T21:48:13.616Z,17.00
2018-09-14T21:50:42.333Z,16.90
2018-09-14T21:53:11.138Z,16.90
2018-09-14T21:55:39.896Z,16.80
2018-09-14T21:58:08.671Z,16.70
2018-09-14T22:00:42.631Z,16.80
2018-09-14T22:03:11.403Z,16.70
2018-09-14T22:05:40.207Z,16.50
2018-09-14T22:08:09.000Z,16.50
2018-09-14T22:10:37.788Z,16.50
2018-09-14T22:13:07.219Z,16.60
2018-09-14T22:15:36.072Z,16.70
2018-09-14T22:18:04.833Z,16.80
2018-09-14T22:20:34.005Z,16.60
2018-09-14T22:23:02.747Z,16.60
2018-09-14T22:25:31.499Z,16.50
2018-09-14T22:28:00.264Z,16.50
2018-09-14T22:30:29.022Z,16.50
2018-09-14T22:32:57.857Z,16.50
2018-09-14T22:35:26.738Z,16.50
2018-09-14T22:37:55.536Z,16.40
2018-09-14T22:40:24.702Z,16.40
2018-09-14T22:42:53.475Z,16.40
2018-09-14T22:45:22.244Z,16.30
2018-09-14T22:47:51.025Z,16.30
2018-09-14T22:50:19.799Z,16.30
2018-09-14T22:52:48.631Z,16.30
2018-09-14T22:55:17.400Z,16.40
2018-09-14T22:57:46.200Z,16.40
2018-09-14T23:00:20.157Z,16.30
2018-09-14T23:02:48.975Z,16.30
2018-09-14T23:05:17.773Z,16.30
2018-09-14T23:07:46.570Z,16.30
2018-09-14T23:10:15.378Z,16.30
2018-09-14T23:12:44.175Z,16.20
2018-09-14T23:15:13.025Z,16.20
2018-09-14T23:17:41.932Z,16.10
2018-09-14T23:20:10.697Z,16.00
2018-09-14T23:22:39.506Z,16.10
2018-09-14T23:25:08.282Z,16.10
2018-09-14T23:27:37.110Z,16.00
2018-09-14T23:30:06.156Z,16.00
2018-09-14T23:32:34.939Z,16.00
2018-09-14T23:35:03.942Z,16.00
2018-09-14T23:37:32.702Z,16.00
2018-09-14T23:40:01.456Z,16.00
2018-09-14T23:42:30.268Z,16.00
2018-09-14T23:44:59.098Z,15.90
2018-09-14T23:47:27.873Z,15.90
2018-09-14T23:49:56.660Z,15.80
2018-09-14T23:52:25.439Z,15.80
2018-09-14T23:54:54.210Z,15.80
2018-09-14T23:57:23.136Z,15.80
2018-09-14T23:59:52.030Z,15.70
